createdAt,value
2023-02-16T00:00:33.502Z,25.20
2023-02-16T00:03:03.699Z,26.07
2023-02-16T00:05:37.345Z,24.70
2023-02-16T00:08:08.059Z,24.00
2023-02-16T00:11:03.127Z,25.77
2023-02-16T00:13:48.122Z,24.00
2023-02-16T00:16:21.880Z,24.70
2023-02-16T00:18:52.673Z,23.07
2023-02-16T00:21:23.156Z,23.03
2023-02-16T00:23:53.424Z,25.87
2023-02-16T00:26:28.798Z,24.10
2023-02-16T00:29:01.214Z,27.93
2023-02-16T00:31:34.561Z,24.77
2023-02-16T00:34:27.598Z,26.67
2023-02-16T00:36:58.620Z,23.50
2023-02-16T00:39:30.353Z,24.40
2023-02-16T00:42:07.115Z,21.90
2023-02-16T00:44:42.876Z,24.37
2023-02-16T00:47:23.361Z,24.40
2023-02-16T00:49:56.336Z,22.90
2023-02-16T00:52:36.988Z,21.00
2023-02-16T00:55:10.261Z,23.03
2023-02-16T00:57:48.335Z,20.43
2023-02-16T01:00:24.811Z,21.37
2023-02-16T01:03:00.050Z,19.50
2023-02-16T01:05:30.532Z,20.07
2023-02-16T01:08:16.646Z,20.30
2023-02-16T01:11:06.281Z,21.17
2023-02-16T01:13:52.224Z,19.10
2023-02-16T01:16:25.580Z,21.33
2023-02-16T01:18:56.996Z,18.17
2023-02-16T01:21:27.138Z,18.23
2023-02-16T01:23:57.201Z,19.00
2023-02-16T01:26:27.377Z,19.63
2023-02-16T01:28:59.988Z,18.93
2023-02-16T01:31:30.390Z,19.73
2023-02-16T01:34:00.446Z,18.50
2023-02-16T01:36:37.464Z,18.70
2023-02-16T01:39:12.655Z,18.50
2023-02-16T01:42:02.748Z,19.50
2023-02-16T01:44:44.071Z,20.63
2023-02-16T01:47:32.614Z,17.70
2023-02-16T01:50:04.227Z,18.93
2023-02-16T01:52:40.119Z,17.33
2023-02-16T01:55:20.937Z,18.07
2023-02-16T01:57:57.751Z,18.67
2023-02-16T02:00:35.065Z,16.27
2023-02-16T02:03:19.866Z,17.90
2023-02-16T02:05:52.882Z,16.20
2023-02-16T02:08:35.515Z,17.53
2023-02-16T02:11:15.100Z,17.37
2023-02-16T02:13:57.471Z,17.47
2023-02-16T02:16:31.457Z,16.00
2023-02-16T02:19:02.520Z,15.20
2023-02-16T02:22:18.873Z,15.30
2023-02-16T02:25:45.462Z,16.50
2023-02-16T02:28:28.844Z,16.90
2023-02-16T02:31:12.243Z,16.37
2023-02-16T02:33:59.226Z,17.00
2023-02-16T02:36:40.780Z,15.60
2023-02-16T02:39:36.218Z,17.57
2023-02-16T02:42:13.599Z,18.00
2023-02-16T02:44:57.445Z,17.00
2023-02-16T02:47:40.986Z,18.87
2023-02-16T02:51:05.975Z,18.80
2023-02-16T02:53:42.941Z,16.00
2023-02-16T02:56:30.097Z,16.47
2023-02-16T02:59:19.806Z,18.40
2023-02-16T03:01:59.571Z,16.80
2023-02-16T03:04:35.380Z,17.63
2023-02-16T03:07:08.008Z,19.20
2023-02-16T03:09:38.187Z,17.53
2023-02-16T03:12:24.874Z,18.40
2023-02-16T03:14:59.148Z,16.10
2023-02-16T03:17:52.517Z,20.87
2023-02-16T03:20:36.229Z,17.20
2023-02-16T03:23:23.149Z,17.07
2023-02-16T03:26:08.270Z,17.40
2023-02-16T03:28:55.998Z,17.03
2023-02-16T03:31:34.061Z,15.87
2023-02-16T03:34:08.424Z,19.00
2023-02-16T03:36:44.528Z,16.37
2023-02-16T03:39:15.556Z,17.00
2023-02-16T03:41:50.294Z,16.87
2023-02-16T03:44:20.831Z,16.23
2023-02-16T03:46:51.800Z,18.43
2023-02-16T03:49:24.500Z,19.70
2023-02-16T03:51:54.453Z,17.60
2023-02-16T03:54:24.461Z,18.13
2023-02-16T03:56:54.413Z,17.93
2023-02-16T03:59:24.381Z,18.20
2023-02-16T04:01:55.261Z,17.67
2023-02-16T04:04:28.161Z,16.53
2023-02-16T04:06:58.159Z,18.60
2023-02-16T04:09:28.380Z,16.60
2023-02-16T04:12:10.794Z,17.80
2023-02-16T04:14:43.521Z,19.20
2023-02-16T04:17:13.732Z,17.73
2023-02-16T04:19:46.252Z,18.53
2023-02-16T04:22:16.194Z,17.73
2023-02-16T04:24:46.297Z,17.67
2023-02-16T04:27:16.308Z,16.97
2023-02-16T04:29:46.281Z,18.53
2023-02-16T04:32:16.347Z,18.27
2023-02-16T04:34:49.110Z,18.87
2023-02-16T04:37:19.174Z,20.23
2023-02-16T04:39:49.119Z,17.47
2023-02-16T04:42:19.089Z,17.23
2023-02-16T04:44:49.095Z,16.00
2023-02-16T04:47:19.378Z,16.87
2023-02-16T04:49:52.063Z,18.40
2023-02-16T04:52:22.513Z,19.10
2023-02-16T04:54:52.518Z,17.00
2023-02-16T04:57:24.220Z,16.40
2023-02-16T04:59:54.349Z,16.37
2023-02-16T05:02:24.277Z,17.80
2023-02-16T05:04:56.890Z,19.13
2023-02-16T05:07:27.026Z,18.57
2023-02-16T05:09:57.008Z,17.13
2023-02-16T05:12:39.449Z,19.60
2023-02-16T05:15:10.209Z,17.50
2023-02-16T05:17:40.355Z,18.27
2023-02-16T05:20:15.496Z,17.70
2023-02-16T05:22:46.395Z,18.00
2023-02-16T05:25:16.564Z,19.40
2023-02-16T05:27:46.601Z,18.33
2023-02-16T05:30:18.495Z,14.80
2023-02-16T05:32:48.505Z,18.30
2023-02-16T05:35:21.076Z,17.10
2023-02-16T05:37:51.061Z,19.83
2023-02-16T05:40:21.431Z,18.50
2023-02-16T05:42:55.992Z,17.63
2023-02-16T05:45:26.053Z,18.90
2023-02-16T05:47:56.052Z,16.57
2023-02-16T05:50:28.529Z,19.30
2023-02-16T05:53:02.277Z,18.87
2023-02-16T05:55:32.545Z,17.47
2023-02-16T05:58:02.499Z,19.00
2023-02-16T06:00:33.743Z,18.40
2023-02-16T06:03:03.861Z,19.87
2023-02-16T06:05:36.561Z,17.13
2023-02-16T06:08:06.840Z,19.23
2023-02-16T06:10:37.471Z,19.40
2023-02-16T06:13:07.568Z,17.40
2023-02-16T06:15:37.606Z,18.37
2023-02-16T06:18:07.848Z,19.73
2023-02-16T06:20:40.864Z,17.20
2023-02-16T06:23:14.274Z,18.10
2023-02-16T06:25:46.131Z,18.87
2023-02-16T06:28:16.083Z,18.77
2023-02-16T06:30:46.080Z,19.87
2023-02-16T06:33:16.059Z,19.90
2023-02-16T06:35:48.591Z,19.93
2023-02-16T06:38:18.514Z,20.33
2023-02-16T06:40:48.550Z,19.33
2023-02-16T06:43:18.465Z,19.43
2023-02-16T06:45:48.995Z,19.40
2023-02-16T06:48:19.340Z,20.23
2023-02-16T06:50:52.140Z,18.57
2023-02-16T06:53:22.962Z,18.17
2023-02-16T06:55:53.735Z,18.60
2023-02-16T06:58:23.754Z,19.97
2023-02-16T07:00:53.935Z,17.43
2023-02-16T07:03:24.996Z,19.97
2023-02-16T07:05:57.598Z,19.10
2023-02-16T07:08:27.987Z,19.70
2023-02-16T07:10:58.073Z,21.03
2023-02-16T07:13:28.155Z,18.53
2023-02-16T07:15:58.150Z,21.57
2023-02-16T07:18:28.109Z,20.40
2023-02-16T07:21:00.816Z,19.40
2023-02-16T07:23:31.106Z,19.60
2023-02-16T07:26:01.227Z,19.43
2023-02-16T07:28:31.479Z,18.70
2023-02-16T07:31:01.782Z,19.63
2023-02-16T07:33:31.981Z,20.90
2023-02-16T07:36:04.726Z,21.20
2023-02-16T07:38:34.726Z,20.87
2023-02-16T07:41:08.687Z,21.60
2023-02-16T07:43:39.783Z,18.37
2023-02-16T07:46:09.889Z,22.17
2023-02-16T07:48:39.912Z,21.27
2023-02-16T07:51:12.436Z,22.80
2023-02-16T07:53:42.422Z,20.50
2023-02-16T07:56:12.404Z,23.63
2023-02-16T07:58:42.378Z,23.00
2023-02-16T08:01:15.953Z,21.63
2023-02-16T08:03:46.455Z,22.63
2023-02-16T08:06:20.618Z,23.20
2023-02-16T08:08:51.328Z,24.13
2023-02-16T08:11:24.293Z,24.53
2023-02-16T08:13:55.337Z,23.10
2023-02-16T08:16:27.710Z,24.07
2023-02-16T08:19:00.818Z,21.13
2023-02-16T08:21:36.611Z,22.43
2023-02-16T08:24:10.019Z,22.00
2023-02-16T08:26:43.190Z,20.47
2023-02-16T08:29:15.272Z,21.53
2023-02-16T08:31:46.266Z,19.20
2023-02-16T08:34:19.131Z,17.50
2023-02-16T08:36:57.019Z,17.73
2023-02-16T08:39:31.333Z,19.03
2023-02-16T08:42:02.621Z,19.33
2023-02-16T08:44:33.115Z,16.60
2023-02-16T08:47:04.007Z,18.20
2023-02-16T08:49:33.970Z,19.73
2023-02-16T08:52:06.956Z,17.27
2023-02-16T08:54:36.888Z,18.47
2023-02-16T08:57:07.131Z,18.50
2023-02-16T08:59:37.163Z,17.00
2023-02-16T09:02:08.053Z,20.47
2023-02-16T09:04:38.329Z,17.67
2023-02-16T09:07:10.923Z,17.40
2023-02-16T09:09:42.741Z,18.77
2023-02-16T09:12:12.984Z,18.83
2023-02-16T09:14:43.213Z,16.67
2023-02-16T09:17:13.190Z,17.63
2023-02-16T09:19:43.557Z,16.93
2023-02-16T09:22:16.115Z,16.27
2023-02-16T09:24:46.121Z,15.90
2023-02-16T09:27:16.055Z,17.57
2023-02-16T09:29:46.626Z,17.67
2023-02-16T09:32:17.300Z,16.43
2023-02-16T09:34:50.128Z,16.97
2023-02-16T09:37:22.701Z,17.23
2023-02-16T09:39:52.860Z,18.47
2023-02-16T09:42:36.157Z,19.90
2023-02-16T09:45:14.262Z,17.80
2023-02-16T09:47:49.131Z,19.47
2023-02-16T09:50:43.868Z,17.83
2023-02-16T09:53:25.431Z,16.10
2023-02-16T09:56:07.191Z,15.03
2023-02-16T09:58:45.821Z,15.80
2023-02-16T10:01:32.119Z,17.20
2023-02-16T10:04:26.957Z,17.40
2023-02-16T10:07:15.497Z,15.73
2023-02-16T10:09:55.248Z,17.70
2023-02-16T10:12:33.649Z,15.73
2023-02-16T10:15:12.873Z,16.50
2023-02-16T10:17:49.787Z,16.53
2023-02-16T10:20:28.589Z,17.13
2023-02-16T10:23:08.736Z,17.27
2023-02-16T10:25:49.713Z,17.17
2023-02-16T10:28:23.102Z,19.03
2023-02-16T10:31:04.052Z,16.40
2023-02-16T10:33:45.143Z,17.77
2023-02-16T10:36:31.989Z,18.40
2023-02-16T10:39:12.186Z,15.30
2023-02-16T10:41:51.060Z,18.40
2023-02-16T10:44:28.746Z,17.27
2023-02-16T10:47:04.751Z,15.93
2023-02-16T10:49:38.596Z,15.80
2023-02-16T10:52:12.450Z,15.30
2023-02-16T10:54:43.293Z,16.93
2023-02-16T10:57:29.523Z,16.97
2023-02-16T11:00:04.556Z,15.07
2023-02-16T11:02:43.814Z,15.47
2023-02-16T11:05:38.200Z,16.57
2023-02-16T11:08:12.906Z,14.13
2023-02-16T11:10:52.439Z,16.20
2023-02-16T11:13:39.331Z,11.80
2023-02-16T11:16:14.971Z,17.50
2023-02-16T11:18:51.218Z,15.00
2023-02-16T11:21:21.411Z,14.50
2023-02-16T11:24:02.660Z,13.83
2023-02-16T11:26:32.556Z,15.33
2023-02-16T11:29:21.695Z,14.70
2023-02-16T11:31:51.947Z,14.83
2023-02-16T11:34:34.556Z,14.53
2023-02-16T11:37:10.100Z,13.40
2023-02-16T11:39:44.115Z,13.30
2023-02-16T11:42:31.781Z,13.10
2023-02-16T11:45:07.625Z,12.70
2023-02-16T11:47:43.092Z,12.70
2023-02-16T11:50:25.827Z,13.93
2023-02-16T11:52:59.252Z,13.07
2023-02-16T11:55:36.090Z,12.20
2023-02-16T11:58:25.236Z,11.07
2023-02-16T12:01:16.662Z,11.37
2023-02-16T12:04:17.283Z,10.50
2023-02-16T12:07:06.293Z,10.13
2023-02-16T12:09:52.309Z,8.93
2023-02-16T12:12:40.307Z,9.77
2023-02-16T12:15:27.270Z,10.30
2023-02-16T12:18:29.101Z,11.27
2023-02-16T12:21:06.989Z,11.30
2023-02-16T12:23:46.092Z,9.47
2023-02-16T12:26:43.052Z,5.70
2023-02-16T12:29:32.170Z,5.33
2023-02-16T12:32:19.668Z,5.30
2023-02-16T12:35:09.531Z,5.57
2023-02-16T12:37:48.693Z,5.63
2023-02-16T12:40:35.987Z,6.13
2023-02-16T12:43:28.166Z,4.37
2023-02-16T12:46:04.640Z,5.30
2023-02-16T12:48:46.484Z,4.90
2023-02-16T12:51:25.358Z,4.83
2023-02-16T12:54:05.193Z,5.60
2023-02-16T12:56:41.997Z,4.30
2023-02-16T12:59:24.441Z,6.20
2023-02-16T13:01:58.922Z,5.57
2023-02-16T13:04:45.379Z,5.40
2023-02-16T13:07:26.604Z,4.93
2023-02-16T13:10:06.832Z,4.30
2023-02-16T13:12:42.978Z,4.10
2023-02-16T13:15:20.798Z,5.60
2023-02-16T13:17:56.718Z,4.80
2023-02-16T13:20:27.968Z,4.47
2023-02-16T13:23:28.554Z,4.33
2023-02-16T13:26:22.596Z,4.73
2023-02-16T13:29:23.168Z,4.40
2023-02-16T13:32:17.419Z,5.10
2023-02-16T13:35:09.320Z,4.63
2023-02-16T13:38:04.336Z,4.33
2023-02-16T13:41:10.432Z,4.53
2023-02-16T13:43:46.165Z,4.70
2023-02-16T13:46:28.638Z,4.70
2023-02-16T13:48:59.332Z,4.50
2023-02-16T13:51:42.928Z,5.03
2023-02-16T13:54:30.609Z,4.97
2023-02-16T13:57:04.788Z,4.67
2023-02-16T14:00:06.679Z,5.13
2023-02-16T14:03:01.324Z,5.10
2023-02-16T14:05:38.482Z,4.97
2023-02-16T14:08:24.776Z,4.00
2023-02-16T14:11:11.582Z,8.00
2023-02-16T14:13:53.359Z,8.27
2023-02-16T14:16:37.341Z,9.37
2023-02-16T14:19:22.164Z,7.90
2023-02-16T14:21:53.716Z,8.20
2023-02-16T14:24:35.749Z,9.50
2023-02-16T14:27:09.623Z,8.13
2023-02-16T14:29:48.972Z,8.80
2023-02-16T14:32:29.647Z,9.47
2023-02-16T14:35:08.846Z,9.23
2023-02-16T14:37:44.375Z,9.70
2023-02-16T14:40:23.860Z,10.70
2023-02-16T14:42:59.444Z,8.97
2023-02-16T14:46:02.516Z,8.77
2023-02-16T14:49:00.740Z,9.10
2023-02-16T14:52:22.548Z,8.40
2023-02-16T14:55:38.722Z,9.07
2023-02-16T14:58:29.182Z,9.00
2023-02-16T15:01:11.406Z,9.87
2023-02-16T15:03:48.293Z,8.53
2023-02-16T15:06:29.244Z,8.47
2023-02-16T15:09:02.976Z,9.13
2023-02-16T15:11:57.627Z,10.20
2023-02-16T15:14:29.671Z,9.23
2023-02-16T15:17:03.424Z,8.33
2023-02-16T15:19:34.373Z,11.77
2023-02-16T15:22:21.501Z,9.00
2023-02-16T15:25:00.545Z,9.83
2023-02-16T15:27:33.170Z,10.30
2023-02-16T15:30:24.154Z,10.13
2023-02-16T15:33:01.239Z,9.60
2023-02-16T15:35:37.421Z,8.80
2023-02-16T15:38:21.398Z,8.97
2023-02-16T15:40:55.512Z,10.67
2023-02-16T15:43:37.465Z,10.40
2023-02-16T15:46:17.258Z,10.23
2023-02-16T15:48:50.615Z,8.80
2023-02-16T15:51:29.127Z,9.43
2023-02-16T15:54:03.049Z,10.90
2023-02-16T15:56:42.272Z,10.93
2023-02-16T15:59:33.555Z,11.40
2023-02-16T16:02:13.424Z,10.67
2023-02-16T16:04:54.992Z,7.73
2023-02-16T16:07:32.538Z,6.80
2023-02-16T16:10:04.287Z,5.20
2023-02-16T16:12:34.465Z,6.90
2023-02-16T16:15:06.944Z,5.63
2023-02-16T16:17:41.695Z,5.40
2023-02-16T16:20:31.534Z,4.20
2023-02-16T16:23:05.479Z,5.17
2023-02-16T16:25:44.873Z,4.90
2023-02-16T16:28:35.157Z,4.90
2023-02-16T16:31:13.562Z,4.97
2023-02-16T16:33:59.035Z,5.03
2023-02-16T16:36:37.681Z,4.70
2023-02-16T16:39:31.385Z,4.47
2023-02-16T16:42:22.280Z,5.00
2023-02-16T16:45:07.738Z,4.37
2023-02-16T16:47:42.280Z,5.33
2023-02-16T16:50:39.068Z,6.00
2023-02-16T16:53:53.523Z,11.50
2023-02-16T16:56:25.097Z,51.17
2023-02-16T16:58:57.579Z,13.90
2023-02-16T17:01:30.203Z,8.50
2023-02-16T17:04:00.856Z,6.80
2023-02-16T17:06:31.150Z,6.00
2023-02-16T17:09:04.661Z,8.20
2023-02-16T17:11:37.772Z,7.90
2023-02-16T17:14:13.066Z,7.83
2023-02-16T17:16:46.955Z,9.30
2023-02-16T17:19:22.967Z,8.33
2023-02-16T17:21:53.220Z,8.43
2023-02-16T17:24:26.795Z,8.67
2023-02-16T17:26:56.775Z,8.00
2023-02-16T17:29:26.836Z,10.03
2023-02-16T17:31:56.808Z,10.33
2023-02-16T17:34:29.513Z,11.30
2023-02-16T17:36:59.608Z,11.27
2023-02-16T17:39:32.232Z,11.30
2023-02-16T17:42:02.209Z,13.93
2023-02-16T17:44:32.282Z,12.20
2023-02-16T17:47:02.279Z,17.07
2023-02-16T17:49:32.305Z,48.73
2023-02-16T17:52:02.253Z,15.80
2023-02-16T17:54:34.851Z,16.70
2023-02-16T17:57:04.901Z,15.50
2023-02-16T17:59:35.075Z,9.93
2023-02-16T18:02:05.079Z,8.13
2023-02-16T18:04:36.114Z,8.80
2023-02-16T18:07:06.299Z,7.80
2023-02-16T18:09:38.876Z,9.63
2023-02-16T18:12:10.018Z,11.50
2023-02-16T18:14:39.956Z,12.50
2023-02-16T18:17:15.189Z,14.10
2023-02-16T18:19:45.622Z,14.40
2023-02-16T18:22:15.578Z,25.27
2023-02-16T18:24:48.235Z,53.43
2023-02-16T18:27:21.182Z,30.20
2023-02-16T18:29:51.748Z,16.40
2023-02-16T18:32:21.711Z,12.27
2023-02-16T18:34:51.978Z,9.63
2023-02-16T18:37:21.972Z,10.20
2023-02-16T18:39:54.552Z,10.10
2023-02-16T18:42:24.761Z,10.73
2023-02-16T18:44:54.724Z,20.47
2023-02-16T18:47:24.742Z,11.00
2023-02-16T18:49:56.259Z,11.17
2023-02-16T18:52:26.882Z,12.50
2023-02-16T18:54:59.507Z,10.80
2023-02-16T18:57:29.593Z,9.70
2023-02-16T18:59:59.601Z,10.10
2023-02-16T19:02:30.103Z,9.80
2023-02-16T19:05:00.110Z,10.67
2023-02-16T19:07:30.585Z,11.10
2023-02-16T19:10:03.333Z,11.60
2023-02-16T19:12:33.351Z,12.20
2023-02-16T19:15:03.410Z,11.43
2023-02-16T19:17:33.420Z,17.70
2023-02-16T19:20:03.438Z,14.10
2023-02-16T19:22:36.867Z,13.07
2023-02-16T19:25:11.005Z,23.50
2023-02-16T19:27:41.035Z,17.40
2023-02-16T19:30:12.643Z,13.60
2023-02-16T19:32:43.707Z,13.70
2023-02-16T19:35:14.748Z,18.73
2023-02-16T19:37:44.930Z,17.27
2023-02-16T19:40:18.813Z,19.13
2023-02-16T19:42:48.798Z,16.17
2023-02-16T19:45:19.060Z,14.13
2023-02-16T19:47:49.167Z,13.57
2023-02-16T19:50:19.404Z,12.73
2023-02-16T19:52:49.381Z,11.60
2023-02-16T19:55:22.207Z,12.23
2023-02-16T19:57:52.252Z,10.33
2023-02-16T20:00:22.509Z,12.03
2023-02-16T20:02:53.523Z,12.83
2023-02-16T20:05:23.574Z,12.20
2023-02-16T20:07:53.553Z,12.93
2023-02-16T20:10:26.211Z,13.10
2023-02-16T20:12:56.524Z,12.40
2023-02-16T20:15:26.517Z,10.13
2023-02-16T20:17:56.516Z,12.80
2023-02-16T20:20:26.796Z,7.60
2023-02-16T20:22:56.791Z,8.73
2023-02-16T20:25:29.435Z,10.97
2023-02-16T20:28:00.734Z,9.13
2023-02-16T20:30:30.859Z,13.93
2023-02-16T20:33:01.102Z,11.87
2023-02-16T20:35:31.113Z,13.70
2023-02-16T20:38:01.093Z,11.47
2023-02-16T20:40:33.619Z,11.20
2023-02-16T20:43:06.454Z,11.40
2023-02-16T20:45:41.206Z,13.87
2023-02-16T20:48:11.721Z,14.83
2023-02-16T20:50:41.714Z,12.47
2023-02-16T20:53:11.723Z,12.20
2023-02-16T20:55:44.414Z,14.63
2023-02-16T20:58:14.442Z,16.07
2023-02-16T21:00:46.489Z,16.10
2023-02-16T21:03:16.522Z,21.00
2023-02-16T21:05:46.609Z,17.57
2023-02-16T21:08:16.654Z,17.90
2023-02-16T21:10:49.665Z,14.13
2023-02-16T21:13:19.694Z,10.40
2023-02-16T21:15:49.759Z,10.03
2023-02-16T21:18:19.890Z,7.97
2023-02-16T21:20:50.040Z,10.07
2023-02-16T21:23:20.182Z,8.90
2023-02-16T21:25:52.732Z,8.70
2023-02-16T21:28:22.793Z,10.33
2023-02-16T21:30:52.890Z,9.90
2023-02-16T21:33:23.465Z,9.53
2023-02-16T21:35:53.462Z,9.70
2023-02-16T21:38:23.975Z,9.77
2023-02-16T21:41:09.047Z,9.63
2023-02-16T21:43:39.232Z,19.10
2023-02-16T21:46:09.615Z,10.50
2023-02-16T21:48:46.049Z,11.77
2023-02-16T21:51:18.276Z,13.10
2023-02-16T21:53:49.533Z,13.17
2023-02-16T21:56:34.257Z,15.90
2023-02-16T21:59:06.526Z,14.73
2023-02-16T22:01:40.226Z,11.90
2023-02-16T22:04:10.262Z,10.73
2023-02-16T22:06:44.338Z,9.73
2023-02-16T22:09:18.615Z,9.40
2023-02-16T22:11:52.231Z,9.00
2023-02-16T22:14:22.517Z,8.10
2023-02-16T22:16:53.155Z,9.73
2023-02-16T22:19:23.202Z,8.97
2023-02-16T22:21:53.157Z,10.10
2023-02-16T22:24:23.431Z,8.47
2023-02-16T22:26:56.057Z,9.27
2023-02-16T22:29:26.141Z,8.43
2023-02-16T22:31:56.193Z,9.00
2023-02-16T22:34:26.193Z,8.07
2023-02-16T22:36:56.210Z,8.90
2023-02-16T22:39:26.253Z,7.83
2023-02-16T22:41:58.805Z,8.53
2023-02-16T22:44:28.787Z,9.37
2023-02-16T22:46:58.742Z,8.60
2023-02-16T22:49:28.812Z,9.10
2023-02-16T22:51:58.959Z,8.80
2023-02-16T22:54:28.944Z,9.23
2023-02-16T22:57:03.775Z,8.13
2023-02-16T22:59:33.749Z,9.03
2023-02-16T23:02:03.772Z,10.00
2023-02-16T23:04:33.816Z,11.60
2023-02-16T23:07:04.124Z,9.37
2023-02-16T23:09:34.164Z,8.40
2023-02-16T23:12:07.546Z,8.90
2023-02-16T23:14:40.591Z,8.90
2023-02-16T23:17:10.633Z,7.60
2023-02-16T23:19:40.664Z,7.23
2023-02-16T23:22:10.739Z,9.50
2023-02-16T23:24:43.647Z,7.73
2023-02-16T23:27:16.202Z,8.37
2023-02-16T23:29:46.184Z,7.70
2023-02-16T23:32:16.298Z,9.10
2023-02-16T23:34:47.327Z,7.40
2023-02-16T23:37:17.239Z,6.30
2023-02-16T23:39:47.349Z,7.00
2023-02-16T23:42:19.987Z,7.60
2023-02-16T23:44:50.062Z,5.63
2023-02-16T23:47:20.059Z,7.57
2023-02-16T23:49:50.183Z,6.97
2023-02-16T23:52:20.804Z,6.47
2023-02-16T23:54:51.593Z,6.13
2023-02-16T23:57:24.127Z,5.77
2023-02-16T23:59:54.120Z,5.57
